ADDS METAR Data INFO
IDs: Format: Raw Decoded Include TAF

Data at: 0732 UTC 18 Oct 2017

KORL 180153Z 04012G21KT 10SM OVC019 24/21 A3008
KORL 172253Z 02019G26KT 10SM BKN018 24/21 A3006
KORL 172153Z 02013G17KT 10SM SCT018 BKN024 25/21 A3004
KORL 171853Z 02015KT 10SM SCT020 SCT031 BKN065 27/22 A3004
KORL 171553Z 03011KT 10SM BKN023 BKN028 28/22 A3003
KORL 171453Z 03010KT 10SM SCT013 26/22 A3008
KORL 171323Z 02007KT 10SM BKN014 OVC085 24/22 A3006
KORL 171253Z 01007KT 10SM FEW012 OVC085 24/22 A3005
KORL 171153Z 01006KT 10SM OVC009 23/22 A3004 RMK CIG 007V012
KORL 171053Z 36007KT 10SM BKN008 OVC100 23/22 A3002
KORL 162353Z 08005KT 10SM CLR 26/24 A2995
KORL 162053Z 06013KT 10SM SCT050 29/23 A2992